sensor_id;sensor_type;location;lat;lon;timestamp;pressure;altitude;pressure_sealevel;temperature;humidity
14383;BME280;7275;50.328;8.720;2023-05-20T00:00:56;100152.72;;;20.34;33.69
14383;BME280;7275;50.328;8.720;2023-05-20T00:03:24;100149.28;;;20.32;33.76
14383;BME280;7275;50.328;8.720;2023-05-20T00:05:52;100146.59;;;20.32;33.99
14383;BME280;7275;50.328;8.720;2023-05-20T00:08:19;100146.72;;;20.31;33.83
14383;BME280;7275;50.328;8.720;2023-05-20T00:10:47;100153.03;;;20.30;34.17
14383;BME280;7275;50.328;8.720;2023-05-20T00:13:14;100148.84;;;20.26;34.14
14383;BME280;7275;50.328;8.720;2023-05-20T00:15:42;100147.13;;;20.25;34.20
14383;BME280;7275;50.328;8.720;2023-05-20T00:18:11;100156.06;;;20.25;34.33
14383;BME280;7275;50.328;8.720;2023-05-20T00:20:39;100146.50;;;20.21;34.45
14383;BME280;7275;50.328;8.720;2023-05-20T00:23:06;100143.81;;;20.21;34.29
14383;BME280;7275;50.328;8.720;2023-05-20T00:25:34;100141.13;;;20.21;34.61
14383;BME280;7275;50.328;8.720;2023-05-20T00:28:02;100133.09;;;20.21;34.56
14383;BME280;7275;50.328;8.720;2023-05-20T00:30:30;100142.94;;;20.21;34.54
14383;BME280;7275;50.328;8.720;2023-05-20T00:32:57;100139.41;;;20.20;34.58
14383;BME280;7275;50.328;8.720;2023-05-20T00:35:26;100145.72;;;20.19;34.76
14383;BME280;7275;50.328;8.720;2023-05-20T00:37:54;100137.59;;;20.21;34.67
14383;BME280;7275;50.328;8.720;2023-05-20T00:40:21;100140.16;;;20.22;34.83
14383;BME280;7275;50.328;8.720;2023-05-20T00:42:50;100137.47;;;20.22;34.88
14383;BME280;7275;50.328;8.720;2023-05-20T00:45:18;100133.91;;;20.22;34.79
14383;BME280;7275;50.328;8.720;2023-05-20T00:47:45;100132.09;;;20.22;34.85
14383;BME280;7275;50.328;8.720;2023-05-20T00:50:13;100137.47;;;20.22;34.90
14383;BME280;7275;50.328;8.720;2023-05-20T00:52:42;100136.59;;;20.22;35.18
14383;BME280;7275;50.328;8.720;2023-05-20T00:55:10;100121.34;;;20.22;35.12
14383;BME280;7275;50.328;8.720;2023-05-20T00:57:38;100131.44;;;20.19;35.16
14383;BME280;7275;50.328;8.720;2023-05-20T01:00:07;100125.31;;;20.17;35.21
14383;BME280;7275;50.328;8.720;2023-05-20T01:02:35;100121.13;;;20.13;35.24
14383;BME280;7275;50.328;8.720;2023-05-20T01:05:03;100121.31;;;20.10;35.31
14383;BME280;7275;50.328;8.720;2023-05-20T01:07:32;100127.00;;;20.05;35.32
14383;BME280;7275;50.328;8.720;2023-05-20T01:10:01;100125.50;;;20.01;35.44
14383;BME280;7275;50.328;8.720;2023-05-20T01:12:32;100121.31;;;19.97;35.42
14383;BME280;7275;50.328;8.720;2023-05-20T01:15:06;100122.59;;;19.91;35.52
14383;BME280;7275;50.328;8.720;2023-05-20T01:17:38;100126.66;;;19.84;35.57
14383;BME280;7275;50.328;8.720;2023-05-20T01:20:08;100126.88;;;19.81;35.68
14383;BME280;7275;50.328;8.720;2023-05-20T01:22:37;100120.84;;;19.78;35.75
14383;BME280;7275;50.328;8.720;2023-05-20T01:25:05;100123.00;;;19.73;35.70
14383;BME280;7275;50.328;8.720;2023-05-20T01:27:33;100124.38;;;19.66;35.89
14383;BME280;7275;50.328;8.720;2023-05-20T01:30:01;100123.84;;;19.61;35.93
14383;BME280;7275;50.328;8.720;2023-05-20T01:32:31;100117.91;;;19.56;36.14
14383;BME280;7275;50.328;8.720;2023-05-20T01:35:00;100120.91;;;19.51;36.04
14383;BME280;7275;50.328;8.720;2023-05-20T01:37:29;100120.25;;;19.48;36.19
14383;BME280;7275;50.328;8.720;2023-05-20T01:39:59;100112.63;;;19.42;36.29
14383;BME280;7275;50.328;8.720;2023-05-20T01:42:27;100104.66;;;19.40;36.30
14383;BME280;7275;50.328;8.720;2023-05-20T01:44:55;100112.06;;;19.37;36.40
14383;BME280;7275;50.328;8.720;2023-05-20T01:47:23;100109.59;;;19.34;36.43
14383;BME280;7275;50.328;8.720;2023-05-20T01:49:51;100106.09;;;19.32;36.64
14383;BME280;7275;50.328;8.720;2023-05-20T01:52:19;100106.09;;;19.32;36.53
14383;BME280;7275;50.328;8.720;2023-05-20T01:54:47;100104.50;;;19.29;36.60
14383;BME280;7275;50.328;8.720;2023-05-20T01:57:18;100102.66;;;19.30;36.61
14383;BME280;7275;50.328;8.720;2023-05-20T01:59:46;100100.09;;;19.28;36.76
14383;BME280;7275;50.328;8.720;2023-05-20T02:02:14;100098.38;;;19.27;36.80
14383;BME280;7275;50.328;8.720;2023-05-20T02:04:42;100096.53;;;19.28;36.97
14383;BME280;7275;50.328;8.720;2023-05-20T02:07:13;100095.59;;;19.29;36.93
14383;BME280;7275;50.328;8.720;2023-05-20T02:09:40;100096.47;;;19.29;36.93
14383;BME280;7275;50.328;8.720;2023-05-20T02:12:08;100094.72;;;19.28;37.05
14383;BME280;7275;50.328;8.720;2023-05-20T02:14:43;100095.78;;;19.26;37.04
14383;BME280;7275;50.328;8.720;2023-05-20T02:17:11;100091.41;;;19.25;37.05
14383;BME280;7275;50.328;8.720;2023-05-20T02:19:39;100086.03;;;19.25;37.30
14383;BME280;7275;50.328;8.720;2023-05-20T02:22:07;100090.53;;;19.24;37.30
14383;BME280;7275;50.328;8.720;2023-05-20T02:24:35;100084.22;;;19.25;37.29
14383;BME280;7275;50.328;8.720;2023-05-20T02:27:02;100085.19;;;19.24;37.49
14383;BME280;7275;50.328;8.720;2023-05-20T02:29:31;100084.31;;;19.24;37.48
14383;BME280;7275;50.328;8.720;2023-05-20T02:32:00;100087.84;;;19.24;37.60
14383;BME280;7275;50.328;8.720;2023-05-20T02:34:30;100082.38;;;19.26;37.62
14383;BME280;7275;50.328;8.720;2023-05-20T02:36:58;100089.47;;;19.27;37.61
14383;BME280;7275;50.328;8.720;2023-05-20T02:39:25;100084.00;;;19.28;37.69
14383;BME280;7275;50.328;8.720;2023-05-20T02:41:54;100086.56;;;19.30;37.64
14383;BME280;7275;50.328;8.720;2023-05-20T02:44:21;100083.81;;;19.31;37.77
14383;BME280;7275;50.328;8.720;2023-05-20T02:46:49;100087.16;;;19.35;37.73
14383;BME280;7275;50.328;8.720;2023-05-20T02:49:18;100081.69;;;19.36;37.86
14383;BME280;7275;50.328;8.720;2023-05-20T02:51:45;100075.38;;;19.37;37.85
14383;BME280;7275;50.328;8.720;2023-05-20T02:54:13;100086.13;;;19.37;37.89
14383;BME280;7275;50.328;8.720;2023-05-20T02:56:40;100086.13;;;19.37;37.95
14383;BME280;7275;50.328;8.720;2023-05-20T02:59:08;100084.31;;;19.38;37.91
14383;BME280;7275;50.328;8.720;2023-05-20T03:01:35;100089.66;;;19.38;38.04
14383;BME280;7275;50.328;8.720;2023-05-20T03:04:03;100079.78;;;19.38;38.17
14383;BME280;7275;50.328;8.720;2023-05-20T03:06:32;100074.41;;;19.38;38.12
14383;BME280;7275;50.328;8.720;2023-05-20T03:09:00;100077.84;;;19.40;38.18
14383;BME280;7275;50.328;8.720;2023-05-20T03:11:28;100080.63;;;19.39;38.20
14383;BME280;7275;50.328;8.720;2023-05-20T03:13:55;100073.47;;;19.39;38.18
14383;BME280;7275;50.328;8.720;2023-05-20T03:16:23;100077.97;;;19.39;38.36
14383;BME280;7275;50.328;8.720;2023-05-20T03:18:50;100077.84;;;19.40;38.38
14383;BME280;7275;50.328;8.720;2023-05-20T03:21:19;100068.00;;;19.41;38.42
14383;BME280;7275;50.328;8.720;2023-05-20T03:23:50;100067.03;;;19.42;38.24
14383;BME280;7275;50.328;8.720;2023-05-20T03:26:18;100068.63;;;19.44;38.38
14383;BME280;7275;50.328;8.720;2023-05-20T03:28:47;100077.53;;;19.45;38.44
14383;BME280;7275;50.328;8.720;2023-05-20T03:31:14;100072.06;;;19.46;38.37
14383;BME280;7275;50.328;8.720;2023-05-20T03:33:43;100071.13;;;19.47;38.36
14383;BME280;7275;50.328;8.720;2023-05-20T03:36:11;100071.00;;;19.49;38.48
14383;BME280;7275;50.328;8.720;2023-05-20T03:38:38;100074.56;;;19.49;38.57
14383;BME280;7275;50.328;8.720;2023-05-20T03:41:07;100055.78;;;19.49;38.65
14383;BME280;7275;50.328;8.720;2023-05-20T03:43:35;100057.59;;;19.49;38.59
14383;BME280;7275;50.328;8.720;2023-05-20T03:46:02;100055.78;;;19.49;38.66
14383;BME280;7275;50.328;8.720;2023-05-20T03:48:30;100067.25;;;19.51;38.64
14383;BME280;7275;50.328;8.720;2023-05-20T03:50:58;100063.63;;;19.52;38.75
14383;BME280;7275;50.328;8.720;2023-05-20T03:53:27;100056.41;;;19.53;38.72
14383;BME280;7275;50.328;8.720;2023-05-20T03:55:54;100061.78;;;19.53;38.78
14383;BME280;7275;50.328;8.720;2023-05-20T03:58:23;100063.63;;;19.52;39.02
14383;BME280;7275;50.328;8.720;2023-05-20T04:00:51;100070.69;;;19.53;38.80
14383;BME280;7275;50.328;8.720;2023-05-20T04:03:19;100076.94;;;19.54;38.90
14383;BME280;7275;50.328;8.720;2023-05-20T04:05:48;100081.44;;;19.53;39.08
14383;BME280;7275;50.328;8.720;2023-05-20T04:08:15;100081.31;;;19.55;39.10
14383;BME280;7275;50.328;8.720;2023-05-20T04:10:44;100086.69;;;19.55;39.03
14383;BME280;7275;50.328;8.720;2023-05-20T04:13:12;100082.94;;;19.57;39.12
14383;BME280;7275;50.328;8.720;2023-05-20T04:15:41;100079.06;;;19.61;39.28
14383;BME280;7275;50.328;8.720;2023-05-20T04:18:09;100070.09;;;19.62;39.28
14383;BME280;7275;50.328;8.720;2023-05-20T04:20:37;100076.19;;;19.64;39.30
14383;BME280;7275;50.328;8.720;2023-05-20T04:23:06;100077.91;;;19.65;39.26
14383;BME280;7275;50.328;8.720;2023-05-20T04:25:34;100075.13;;;19.67;39.25
14383;BME280;7275;50.328;8.720;2023-05-20T04:28:02;100066.00;;;19.69;39.26
14383;BME280;7275;50.328;8.720;2023-05-20T04:30:30;100067.50;;;19.73;39.32
14383;BME280;7275;50.328;8.720;2023-05-20T04:33:00;100062.06;;;19.75;39.54
14383;BME280;7275;50.328;8.720;2023-05-20T04:35:29;100060.88;;;19.79;39.44
14383;BME280;7275;50.328;8.720;2023-05-20T04:37:57;100067.00;;;19.81;39.49
14383;BME280;7275;50.328;8.720;2023-05-20T04:40:24;100058.81;;;19.82;39.50
14383;BME280;7275;50.328;8.720;2023-05-20T04:42:52;100066.69;;;19.85;39.55
14383;BME280;7275;50.328;8.720;2023-05-20T04:45:21;100075.25;;;19.90;39.55
14383;BME280;7275;50.328;8.720;2023-05-20T04:47:49;100067.13;;;19.92;39.50
14383;BME280;7275;50.328;8.720;2023-05-20T04:50:20;100070.31;;;19.97;39.49
14383;BME280;7275;50.328;8.720;2023-05-20T04:52:47;100065.59;;;20.01;39.48
14383;BME280;7275;50.328;8.720;2023-05-20T04:55:15;100074.31;;;20.04;39.48
14383;BME280;7275;50.328;8.720;2023-05-20T04:57:44;100072.13;;;20.09;39.58
14383;BME280;7275;50.328;8.720;2023-05-20T05:00:13;100069.88;;;20.16;39.62
14383;BME280;7275;50.328;8.720;2023-05-20T05:02:41;100066.91;;;20.20;39.64
14383;BME280;7275;50.328;8.720;2023-05-20T05:05:08;100061.22;;;20.25;39.53
14383;BME280;7275;50.328;8.720;2023-05-20T05:07:37;100069.91;;;20.28;39.53
14383;BME280;7275;50.328;8.720;2023-05-20T05:10:06;100067.97;;;20.30;39.64
14383;BME280;7275;50.328;8.720;2023-05-20T05:12:34;100067.66;;;20.35;39.56
14383;BME280;7275;50.328;8.720;2023-05-20T05:15:01;100066.69;;;20.36;39.44
14383;BME280;7275;50.328;8.720;2023-05-20T05:17:29;100074.50;;;20.39;39.45
14383;BME280;7275;50.328;8.720;2023-05-20T05:19:56;100068.94;;;20.42;39.53
14383;BME280;7275;50.328;8.720;2023-05-20T05:22:24;100068.69;;;20.45;39.46
14383;BME280;7275;50.328;8.720;2023-05-20T05:24:53;100064.72;;;20.50;39.59
14383;BME280;7275;50.328;8.720;2023-05-20T05:27:21;100062.56;;;20.55;39.51
14383;BME280;7275;50.328;8.720;2023-05-20T05:29:49;100055.13;;;20.59;39.48
14383;BME280;7275;50.328;8.720;2023-05-20T05:32:16;100064.59;;;20.64;39.49
14383;BME280;7275;50.328;8.720;2023-05-20T05:34:44;100051.78;;;20.68;39.53
14383;BME280;7275;50.328;8.720;2023-05-20T05:37:11;100055.81;;;20.73;39.40
14383;BME280;7275;50.328;8.720;2023-05-20T05:39:39;100053.56;;;20.80;39.55
14383;BME280;7275;50.328;8.720;2023-05-20T05:42:08;100054.09;;;20.85;39.43
14383;BME280;7275;50.328;8.720;2023-05-20T05:44:35;100056.44;;;20.90;39.37
14383;BME280;7275;50.328;8.720;2023-05-20T05:47:04;100045.22;;;20.96;39.59
14383;BME280;7275;50.328;8.720;2023-05-20T05:49:32;100042.84;;;21.04;39.43
14383;BME280;7275;50.328;8.720;2023-05-20T05:52:00;100052.28;;;21.09;39.56
14383;BME280;7275;50.328;8.720;2023-05-20T05:54:27;100043.75;;;21.15;39.33
14383;BME280;7275;50.328;8.720;2023-05-20T05:56:55;100044.06;;;21.23;39.31
14383;BME280;7275;50.328;8.720;2023-05-20T05:59:24;100041.66;;;21.31;39.50
14383;BME280;7275;50.328;8.720;2023-05-20T06:01:52;100042.88;;;21.38;39.34
14383;BME280;7275;50.328;8.720;2023-05-20T06:04:19;100049.63;;;21.44;39.17
14383;BME280;7275;50.328;8.720;2023-05-20T06:06:47;100052.72;;;21.51;39.17
14383;BME280;7275;50.328;8.720;2023-05-20T06:09:15;100037.94;;;21.56;39.20
14383;BME280;7275;50.328;8.720;2023-05-20T06:11:43;100041.97;;;21.62;39.09
14383;BME280;7275;50.328;8.720;2023-05-20T06:14:10;100032.47;;;21.69;39.29
14383;BME280;7275;50.328;8.720;2023-05-20T06:16:39;100039.19;;;21.74;39.23
14383;BME280;7275;50.328;8.720;2023-05-20T06:19:07;100030.63;;;21.80;39.21
14383;BME280;7275;50.328;8.720;2023-05-20T06:21:35;100033.75;;;21.87;39.12
14383;BME280;7275;50.328;8.720;2023-05-20T06:24:03;100025.19;;;21.93;39.12
14383;BME280;7275;50.328;8.720;2023-05-20T06:26:30;100022.25;;;21.96;38.71
14383;BME280;7275;50.328;8.720;2023-05-20T06:28:58;100030.22;;;21.97;38.97
14383;BME280;7275;50.328;8.720;2023-05-20T06:31:26;100029.97;;;22.00;39.13
14383;BME280;7275;50.328;8.720;2023-05-20T06:33:56;100029.50;;;22.06;39.05
14383;BME280;7275;50.328;8.720;2023-05-20T06:36:25;100023.75;;;22.11;39.04
14383;BME280;7275;50.328;8.720;2023-05-20T06:38:53;100018.09;;;22.14;39.09
14383;BME280;7275;50.328;8.720;2023-05-20T06:41:20;100020.56;;;22.17;39.08
14383;BME280;7275;50.328;8.720;2023-05-20T06:43:48;100019.34;;;22.21;38.92
14383;BME280;7275;50.328;8.720;2023-05-20T06:46:18;100012.00;;;22.23;38.82
14383;BME280;7275;50.328;8.720;2023-05-20T06:48:46;100025.94;;;22.28;38.79
14383;BME280;7275;50.328;8.720;2023-05-20T06:51:15;100021.16;;;22.32;38.72
14383;BME280;7275;50.328;8.720;2023-05-20T06:53:42;100025.34;;;22.36;38.87
14383;BME280;7275;50.328;8.720;2023-05-20T06:56:10;100025.81;;;22.41;39.01
14383;BME280;7275;50.328;8.720;2023-05-20T06:58:37;100014.66;;;22.45;38.62
14383;BME280;7275;50.328;8.720;2023-05-20T07:01:05;100021.13;;;22.54;38.80
14383;BME280;7275;50.328;8.720;2023-05-20T07:03:33;100011.63;;;22.61;38.59
14383;BME280;7275;50.328;8.720;2023-05-20T07:06:00;100016.22;;;22.70;38.42
14383;BME280;7275;50.328;8.720;2023-05-20T07:08:29;100007.41;;;22.79;38.43
14383;BME280;7275;50.328;8.720;2023-05-20T07:10:57;100008.47;;;22.87;38.71
14383;BME280;7275;50.328;8.720;2023-05-20T07:13:24;100009.56;;;22.96;38.35
14383;BME280;7275;50.328;8.720;2023-05-20T07:15:52;100005.34;;;23.03;38.49
14383;BME280;7275;50.328;8.720;2023-05-20T07:18:20;100012.81;;;23.11;38.29
14383;BME280;7275;50.328;8.720;2023-05-20T07:20:47;100006.03;;;23.16;38.25
14383;BME280;7275;50.328;8.720;2023-05-20T07:23:15;100008.84;;;23.26;38.13
14383;BME280;7275;50.328;8.720;2023-05-20T07:25:44;100001.84;;;23.34;38.62
14383;BME280;7275;50.328;8.720;2023-05-20T07:28:14;100003.88;;;23.42;38.10
14383;BME280;7275;50.328;8.720;2023-05-20T07:30:42;100008.34;;;23.52;38.28
14383;BME280;7275;50.328;8.720;2023-05-20T07:33:11;100003.72;;;23.64;38.33
14383;BME280;7275;50.328;8.720;2023-05-20T07:35:39;100000.25;;;23.73;38.26
14383;BME280;7275;50.328;8.720;2023-05-20T07:38:06;99993.34;;;23.80;37.78
14383;BME280;7275;50.328;8.720;2023-05-20T07:40:34;99990.22;;;23.84;37.96
14383;BME280;7275;50.328;8.720;2023-05-20T07:43:05;99988.28;;;23.96;38.19
14383;BME280;7275;50.328;8.720;2023-05-20T07:45:33;99991.94;;;24.06;37.70
14383;BME280;7275;50.328;8.720;2023-05-20T07:48:01;99988.28;;;24.17;37.75
14383;BME280;7275;50.328;8.720;2023-05-20T07:50:29;99980.06;;;24.28;37.48
14383;BME280;7275;50.328;8.720;2023-05-20T07:52:57;99989.22;;;24.36;37.48
14383;BME280;7275;50.328;8.720;2023-05-20T07:55:24;99983.09;;;24.44;37.50
14383;BME280;7275;50.328;8.720;2023-05-20T07:57:52;99989.13;;;24.57;37.58
14383;BME280;7275;50.328;8.720;2023-05-20T08:00:21;99994.13;;;24.71;37.26
14383;BME280;7275;50.328;8.720;2023-05-20T08:02:49;99989.66;;;24.91;37.29
14383;BME280;7275;50.328;8.720;2023-05-20T08:05:17;99976.81;;;25.12;37.54
14383;BME280;7275;50.328;8.720;2023-05-20T08:07:45;99977.81;;;25.39;37.34
14383;BME280;7275;50.328;8.720;2023-05-20T08:10:12;99974.81;;;25.62;37.22
14383;BME280;7275;50.328;8.720;2023-05-20T08:12:40;99966.09;;;25.77;36.70
14383;BME280;7275;50.328;8.720;2023-05-20T08:15:08;99970.31;;;25.89;36.74
14383;BME280;7275;50.328;8.720;2023-05-20T08:17:37;99960.88;;;26.03;36.87
14383;BME280;7275;50.328;8.720;2023-05-20T08:20:05;99963.06;;;26.27;36.55
14383;BME280;7275;50.328;8.720;2023-05-20T08:22:34;99970.25;;;26.45;36.32
14383;BME280;7275;50.328;8.720;2023-05-20T08:25:06;99973.16;;;26.61;36.08
14383;BME280;7275;50.328;8.720;2023-05-20T08:27:34;99977.06;;;26.76;35.79
14383;BME280;7275;50.328;8.720;2023-05-20T08:30:02;99970.44;;;26.88;35.83
14383;BME280;7275;50.328;8.720;2023-05-20T08:32:29;99967.34;;;27.01;35.56
14383;BME280;7275;50.328;8.720;2023-05-20T08:34:59;99955.53;;;27.10;35.52
14383;BME280;7275;50.328;8.720;2023-05-20T08:37:27;99960.34;;;27.16;35.24
14383;BME280;7275;50.328;8.720;2023-05-20T08:39:54;99958.66;;;27.15;35.21
14383;BME280;7275;50.328;8.720;2023-05-20T08:42:22;99964.25;;;27.14;35.32
14383;BME280;7275;50.328;8.720;2023-05-20T08:44:50;99956.22;;;27.12;34.93
14383;BME280;7275;50.328;8.720;2023-05-20T08:47:19;99948.41;;;27.09;34.80
14383;BME280;7275;50.328;8.720;2023-05-20T08:49:47;99950.03;;;27.02;34.83
14383;BME280;7275;50.328;8.720;2023-05-20T08:52:17;99951.97;;;26.92;34.84
14383;BME280;7275;50.328;8.720;2023-05-20T08:54:48;99954.78;;;26.82;34.63
14383;BME280;7275;50.328;8.720;2023-05-20T08:57:16;99954.97;;;26.71;34.88
14383;BME280;7275;50.328;8.720;2023-05-20T08:59:46;99950.59;;;26.61;34.87
14383;BME280;7275;50.328;8.720;2023-05-20T09:02:14;99946.09;;;26.52;34.95
14383;BME280;7275;50.328;8.720;2023-05-20T09:04:41;99940.41;;;26.45;35.10
14383;BME280;7275;50.328;8.720;2023-05-20T09:07:09;99944.44;;;26.41;34.96
14383;BME280;7275;50.328;8.720;2023-05-20T09:09:38;99954.91;;;26.36;35.14
14383;BME280;7275;50.328;8.720;2023-05-20T09:12:06;99949.75;;;26.33;35.16
14383;BME280;7275;50.328;8.720;2023-05-20T09:14:34;99949.50;;;26.27;35.32
14383;BME280;7275;50.328;8.720;2023-05-20T09:17:03;99954.53;;;26.22;35.21
14383;BME280;7275;50.328;8.720;2023-05-20T09:19:32;99952.13;;;26.19;35.46
14383;BME280;7275;50.328;8.720;2023-05-20T09:22:02;99965.53;;;26.20;35.57
14383;BME280;7275;50.328;8.720;2023-05-20T09:24:30;99961.66;;;26.23;35.49
14383;BME280;7275;50.328;8.720;2023-05-20T09:26:59;99952.22;;;26.27;35.38
14383;BME280;7275;50.328;8.720;2023-05-20T09:29:27;99963.19;;;26.35;35.61
14383;BME280;7275;50.328;8.720;2023-05-20T09:31:54;99957.00;;;26.42;35.24
14383;BME280;7275;50.328;8.720;2023-05-20T09:34:22;99960.09;;;26.47;35.39
14383;BME280;7275;50.328;8.720;2023-05-20T09:36:50;99952.19;;;26.54;35.31
14383;BME280;7275;50.328;8.720;2023-05-20T09:39:23;99953.84;;;26.64;35.25
14383;BME280;7275;50.328;8.720;2023-05-20T09:41:55;99950.97;;;26.75;35.15
14383;BME280;7275;50.328;8.720;2023-05-20T09:44:25;99943.13;;;26.90;35.17
14383;BME280;7275;50.328;8.720;2023-05-20T09:46:55;99928.56;;;27.09;35.06
14383;BME280;7275;50.328;8.720;2023-05-20T09:49:24;99928.69;;;27.25;35.07
14383;BME280;7275;50.328;8.720;2023-05-20T09:51:53;99941.41;;;27.42;34.74
14383;BME280;7275;50.328;8.720;2023-05-20T09:54:22;99930.53;;;27.59;34.66
14383;BME280;7275;50.328;8.720;2023-05-20T09:56:52;99930.44;;;27.77;34.66
14383;BME280;7275;50.328;8.720;2023-05-20T09:59:21;99932.03;;;27.88;34.39
14383;BME280;7275;50.328;8.720;2023-05-20T10:01:50;99931.03;;;27.89;34.03
14383;BME280;7275;50.328;8.720;2023-05-20T10:04:18;99933.06;;;27.87;34.04
14383;BME280;7275;50.328;8.720;2023-05-20T10:07:04;99933.38;;;27.84;34.02
14383;BME280;7275;50.328;8.720;2023-05-20T10:09:48;99926.56;;;27.80;33.89
14383;BME280;7275;50.328;8.720;2023-05-20T10:12:28;99934.31;;;27.75;34.00
14383;BME280;7275;50.328;8.720;2023-05-20T10:15:14;99934.44;;;27.65;34.04
14383;BME280;7275;50.328;8.720;2023-05-20T10:17:54;99934.69;;;27.54;33.99
14383;BME280;7275;50.328;8.720;2023-05-20T10:20:26;99935.81;;;27.43;34.13
14383;BME280;7275;50.328;8.720;2023-05-20T10:22:55;99938.06;;;27.30;34.12
14383;BME280;7275;50.328;8.720;2023-05-20T10:25:25;99925.97;;;27.25;34.24
14383;BME280;7275;50.328;8.720;2023-05-20T10:28:03;99925.13;;;27.24;34.39
14383;BME280;7275;50.328;8.720;2023-05-20T10:30:33;99928.22;;;27.29;34.13
14383;BME280;7275;50.328;8.720;2023-05-20T10:33:05;99926.88;;;27.33;34.27
14383;BME280;7275;50.328;8.720;2023-05-20T10:35:33;99925.19;;;27.32;34.39
14383;BME280;7275;50.328;8.720;2023-05-20T10:38:09;99924.34;;;27.32;34.39
14383;BME280;7275;50.328;8.720;2023-05-20T10:40:37;99930.31;;;27.35;34.25
14383;BME280;7275;50.328;8.720;2023-05-20T10:43:08;99929.84;;;27.40;34.28
14383;BME280;7275;50.328;8.720;2023-05-20T10:45:47;99929.06;;;27.47;34.24
14383;BME280;7275;50.328;8.720;2023-05-20T10:48:26;99929.59;;;27.51;34.51
14383;BME280;7275;50.328;8.720;2023-05-20T10:50:54;99926.47;;;27.63;34.15
14383;BME280;7275;50.328;8.720;2023-05-20T10:53:25;99935.09;;;27.85;34.17
14383;BME280;7275;50.328;8.720;2023-05-20T10:56:00;99932.31;;;28.02;33.85
14383;BME280;7275;50.328;8.720;2023-05-20T10:58:35;99930.00;;;28.15;33.67
14383;BME280;7275;50.328;8.720;2023-05-20T11:01:03;99920.03;;;28.32;34.01
14383;BME280;7275;50.328;8.720;2023-05-20T11:03:33;99919.78;;;28.51;33.87
14383;BME280;7275;50.328;8.720;2023-05-20T11:06:10;99918.66;;;28.78;33.31
14383;BME280;7275;50.328;8.720;2023-05-20T11:08:37;99912.03;;;29.04;33.47
14383;BME280;7275;50.328;8.720;2023-05-20T11:11:05;99901.50;;;29.34;33.39
14383;BME280;7275;50.328;8.720;2023-05-20T11:13:33;99893.16;;;29.51;33.56
14383;BME280;7275;50.328;8.720;2023-05-20T11:16:00;99893.97;;;29.68;33.24
14383;BME280;7275;50.328;8.720;2023-05-20T11:18:30;99898.38;;;29.93;32.88
14383;BME280;7275;50.328;8.720;2023-05-20T11:20:59;99893.66;;;30.18;32.86
14383;BME280;7275;50.328;8.720;2023-05-20T11:23:28;99885.94;;;30.37;32.47
14383;BME280;7275;50.328;8.720;2023-05-20T11:25:56;99883.09;;;30.53;32.37
14383;BME280;7275;50.328;8.720;2023-05-20T11:28:24;99884.50;;;30.72;32.33
14383;BME280;7275;50.328;8.720;2023-05-20T11:30:52;99882.72;;;30.87;31.81
14383;BME280;7275;50.328;8.720;2023-05-20T11:33:20;99874.28;;;30.97;31.52
14383;BME280;7275;50.328;8.720;2023-05-20T11:35:51;99879.84;;;31.03;31.30
14383;BME280;7275;50.328;8.720;2023-05-20T11:38:20;99888.28;;;31.16;31.29
14383;BME280;7275;50.328;8.720;2023-05-20T11:40:52;99884.34;;;31.33;30.90
14383;BME280;7275;50.328;8.720;2023-05-20T11:43:21;99890.94;;;31.47;31.29
14383;BME280;7275;50.328;8.720;2023-05-20T11:45:52;99894.25;;;31.57;30.94
14383;BME280;7275;50.328;8.720;2023-05-20T11:48:19;99890.09;;;31.61;30.47
14383;BME280;7275;50.328;8.720;2023-05-20T11:50:47;99889.75;;;31.64;30.16
14383;BME280;7275;50.328;8.720;2023-05-20T11:53:16;99891.91;;;31.69;30.20
14383;BME280;7275;50.328;8.720;2023-05-20T11:55:47;99876.06;;;31.64;30.19
14383;BME280;7275;50.328;8.720;2023-05-20T11:58:15;99870.09;;;31.61;30.14
14383;BME280;7275;50.328;8.720;2023-05-20T12:00:44;99861.63;;;31.56;30.06
14383;BME280;7275;50.328;8.720;2023-05-20T12:03:22;99877.56;;;31.52;30.10
14383;BME280;7275;50.328;8.720;2023-05-20T12:05:51;99870.03;;;31.54;30.00
14383;BME280;7275;50.328;8.720;2023-05-20T12:08:19;99871.72;;;31.55;30.10
14383;BME280;7275;50.328;8.720;2023-05-20T12:10:49;99872.94;;;31.52;30.01
14383;BME280;7275;50.328;8.720;2023-05-20T12:13:16;99866.59;;;31.37;29.81
14383;BME280;7275;50.328;8.720;2023-05-20T12:15:44;99854.25;;;31.19;29.72
14383;BME280;7275;50.328;8.720;2023-05-20T12:18:12;99867.41;;;31.01;30.04
14383;BME280;7275;50.328;8.720;2023-05-20T12:20:41;99864.28;;;30.89;30.05
14383;BME280;7275;50.328;8.720;2023-05-20T12:23:09;99868.06;;;30.80;30.27
14383;BME280;7275;50.328;8.720;2023-05-20T12:25:36;99874.19;;;30.82;30.27
14383;BME280;7275;50.328;8.720;2023-05-20T12:28:05;99858.16;;;30.87;30.39
14383;BME280;7275;50.328;8.720;2023-05-20T12:30:33;99848.91;;;30.88;30.46
14383;BME280;7275;50.328;8.720;2023-05-20T12:33:01;99850.25;;;30.92;30.53
14383;BME280;7275;50.328;8.720;2023-05-20T12:35:36;99856.22;;;30.96;30.79
14383;BME280;7275;50.328;8.720;2023-05-20T12:38:04;99864.13;;;31.05;30.73
14383;BME280;7275;50.328;8.720;2023-05-20T12:40:32;99849.50;;;31.21;30.35
14383;BME280;7275;50.328;8.720;2023-05-20T12:43:01;99847.16;;;31.32;30.28
14383;BME280;7275;50.328;8.720;2023-05-20T12:45:30;99839.94;;;31.39;30.18
14383;BME280;7275;50.328;8.720;2023-05-20T12:47:58;99847.19;;;31.47;30.22
14383;BME280;7275;50.328;8.720;2023-05-20T12:50:26;99846.44;;;31.53;30.15
14383;BME280;7275;50.328;8.720;2023-05-20T12:52:53;99856.16;;;31.56;30.14
14383;BME280;7275;50.328;8.720;2023-05-20T12:55:21;99845.69;;;31.59;30.00
14383;BME280;7275;50.328;8.720;2023-05-20T12:57:49;99847.88;;;31.64;29.79
14383;BME280;7275;50.328;8.720;2023-05-20T13:00:17;99848.06;;;31.77;29.75
14383;BME280;7275;50.328;8.720;2023-05-20T13:02:46;99860.00;;;31.90;29.71
14383;BME280;7275;50.328;8.720;2023-05-20T13:05:14;99848.63;;;32.01;29.27
14383;BME280;7275;50.328;8.720;2023-05-20T13:07:41;99837.59;;;32.09;29.22
14383;BME280;7275;50.328;8.720;2023-05-20T13:10:09;99834.53;;;32.19;29.34
14383;BME280;7275;50.328;8.720;2023-05-20T13:12:37;99834.25;;;32.28;29.23